sensor_id;sensor_type;location;lat;lon;timestamp;pressure;altitude;pressure_sealevel;temperature;humidity
42859;BME280;28505;56.970;40.998;2023-09-19T00:05:01;100711.00;;;2.73;100.00
42859;BME280;28505;56.970;40.998;2023-09-19T00:10:27;100712.06;;;2.10;100.00
42859;BME280;28505;56.970;40.998;2023-09-19T00:15:52;100715.94;;;1.82;100.00
42859;BME280;28505;56.970;40.998;2023-09-19T00:21:42;100715.84;;;2.57;100.00
42859;BME280;28505;56.970;40.998;2023-09-19T00:27:04;100710.97;;;2.54;100.00
42859;BME280;28505;56.970;40.998;2023-09-19T00:32:27;100721.63;;;2.54;100.00
42859;BME280;28505;56.970;40.998;2023-09-19T00:37:55;100729.63;;;2.36;100.00
42859;BME280;28505;56.970;40.998;2023-09-19T00:43:17;100726.41;;;2.27;100.00
42859;BME280;28505;56.970;40.998;2023-09-19T00:48:41;100731.41;;;2.17;100.00
42859;BME280;28505;56.970;40.998;2023-09-19T00:54:05;100741.88;;;2.74;100.00
42859;BME280;28505;56.970;40.998;2023-09-19T00:59:28;100730.28;;;2.50;100.00
42859;BME280;28505;56.970;40.998;2023-09-19T01:04:51;100736.75;;;2.17;100.00
42859;BME280;28505;56.970;40.998;2023-09-19T01:10:17;100744.13;;;1.90;100.00
42859;BME280;28505;56.970;40.998;2023-09-19T01:15:51;100740.56;;;2.03;100.00
42859;BME280;28505;56.970;40.998;2023-09-19T01:21:35;100741.94;;;2.05;100.00
42859;BME280;28505;56.970;40.998;2023-09-19T01:32:42;100745.03;;;2.02;100.00
42859;BME280;28505;56.970;40.998;2023-09-19T01:38:06;100738.72;;;2.22;100.00
42859;BME280;28505;56.970;40.998;2023-09-19T01:43:35;100744.13;;;2.77;100.00
42859;BME280;28505;56.970;40.998;2023-09-19T01:54:51;100750.13;;;1.79;100.00
42859;BME280;28505;56.970;40.998;2023-09-19T02:00:14;100748.38;;;1.66;100.00
42859;BME280;28505;56.970;40.998;2023-09-19T02:05:36;100741.09;;;1.86;100.00
42859;BME280;28505;56.970;40.998;2023-09-19T02:10:59;100754.31;;;2.18;100.00
42859;BME280;28505;56.970;40.998;2023-09-19T02:16:21;100755.84;;;2.32;100.00
42859;BME280;28505;56.970;40.998;2023-09-19T02:21:44;100751.13;;;1.53;100.00
42859;BME280;28505;56.970;40.998;2023-09-19T02:27:05;100753.50;;;1.93;100.00
42859;BME280;28505;56.970;40.998;2023-09-19T02:32:29;100740.22;;;1.29;100.00
42859;BME280;28505;56.970;40.998;2023-09-19T02:37:53;100742.63;;;1.44;100.00
42859;BME280;28505;56.970;40.998;2023-09-19T02:43:15;100746.38;;;3.10;100.00
42859;BME280;28505;56.970;40.998;2023-09-19T02:48:37;100745.72;;;2.96;100.00
42859;BME280;28505;56.970;40.998;2023-09-19T02:54:00;100746.97;;;3.42;100.00
42859;BME280;28505;56.970;40.998;2023-09-19T02:59:22;100752.00;;;3.50;100.00
42859;BME280;28505;56.970;40.998;2023-09-19T03:04:44;100746.25;;;2.50;100.00
42859;BME280;28505;56.970;40.998;2023-09-19T03:10:09;100734.59;;;2.69;100.00
42859;BME280;28505;56.970;40.998;2023-09-19T03:15:34;100743.03;;;3.75;100.00
42859;BME280;28505;56.970;40.998;2023-09-19T03:20:56;100745.41;;;4.07;100.00
42859;BME280;28505;56.970;40.998;2023-09-19T03:26:18;100735.84;;;3.34;100.00
42859;BME280;28505;56.970;40.998;2023-09-19T03:31:41;100737.63;;;2.73;100.00
42859;BME280;28505;56.970;40.998;2023-09-19T03:37:03;100736.41;;;2.50;100.00
42859;BME280;28505;56.970;40.998;2023-09-19T03:42:26;100735.59;;;2.87;100.00
42859;BME280;28505;56.970;40.998;2023-09-19T03:47:48;100734.56;;;3.06;100.00
42859;BME280;28505;56.970;40.998;2023-09-19T03:53:12;100734.00;;;3.76;100.00
42859;BME280;28505;56.970;40.998;2023-09-19T03:58:35;100730.53;;;3.87;100.00
42859;BME280;28505;56.970;40.998;2023-09-19T04:04:01;100726.13;;;4.40;100.00
42859;BME280;28505;56.970;40.998;2023-09-19T04:09:30;100720.53;;;4.65;100.00
42859;BME280;28505;56.970;40.998;2023-09-19T04:14:52;100724.16;;;4.59;100.00
42859;BME280;28505;56.970;40.998;2023-09-19T04:20:15;100720.97;;;4.74;100.00
42859;BME280;28505;56.970;40.998;2023-09-19T04:25:37;100722.81;;;4.85;100.00
42859;BME280;28505;56.970;40.998;2023-09-19T04:31:02;100718.19;;;5.21;100.00
42859;BME280;28505;56.970;40.998;2023-09-19T04:36:25;100710.41;;;5.36;100.00
42859;BME280;28505;56.970;40.998;2023-09-19T04:41:56;100711.81;;;5.55;100.00
42859;BME280;28505;56.970;40.998;2023-09-19T04:47:19;100713.97;;;5.70;100.00
42859;BME280;28505;56.970;40.998;2023-09-19T04:52:41;100708.88;;;6.19;100.00
42859;BME280;28505;56.970;40.998;2023-09-19T04:58:06;100713.34;;;6.52;100.00
42859;BME280;28505;56.970;40.998;2023-09-19T05:03:28;100712.09;;;6.60;100.00
42859;BME280;28505;56.970;40.998;2023-09-19T05:08:50;100704.97;;;6.88;100.00
42859;BME280;28505;56.970;40.998;2023-09-19T05:14:13;100716.94;;;7.29;100.00
42859;BME280;28505;56.970;40.998;2023-09-19T05:19:37;100704.72;;;7.70;100.00
42859;BME280;28505;56.970;40.998;2023-09-19T05:24:59;100710.41;;;7.47;100.00
42859;BME280;28505;56.970;40.998;2023-09-19T05:30:23;100726.97;;;7.66;100.00
42859;BME280;28505;56.970;40.998;2023-09-19T05:35:50;100729.53;;;8.20;100.00
42859;BME280;28505;56.970;40.998;2023-09-19T05:41:19;100729.16;;;8.43;100.00
42859;BME280;28505;56.970;40.998;2023-09-19T05:46:41;100726.03;;;8.57;100.00
42859;BME280;28505;56.970;40.998;2023-09-19T05:52:07;100739.63;;;8.93;100.00
42859;BME280;28505;56.970;40.998;2023-09-19T05:57:30;100733.03;;;9.26;100.00
42859;BME280;28505;56.970;40.998;2023-09-19T06:02:53;100734.66;;;9.47;100.00
42859;BME280;28505;56.970;40.998;2023-09-19T06:08:16;100740.38;;;10.02;100.00
42859;BME280;28505;56.970;40.998;2023-09-19T06:13:37;100743.59;;;10.29;100.00
42859;BME280;28505;56.970;40.998;2023-09-19T06:19:01;100746.56;;;10.28;100.00
42859;BME280;28505;56.970;40.998;2023-09-19T06:24:23;100746.19;;;10.75;100.00
42859;BME280;28505;56.970;40.998;2023-09-19T06:29:45;100734.84;;;10.78;100.00
42859;BME280;28505;56.970;40.998;2023-09-19T06:35:07;100728.41;;;11.29;100.00
42859;BME280;28505;56.970;40.998;2023-09-19T06:40:30;100728.34;;;11.79;100.00
42859;BME280;28505;56.970;40.998;2023-09-19T06:45:53;100730.13;;;12.28;93.91
42859;BME280;28505;56.970;40.998;2023-09-19T06:51:16;100722.53;;;12.78;82.89
42859;BME280;28505;56.970;40.998;2023-09-19T06:56:38;100720.16;;;13.14;77.41
42859;BME280;28505;56.970;40.998;2023-09-19T07:02:01;100724.78;;;13.38;74.46
42859;BME280;28505;56.970;40.998;2023-09-19T07:07:24;100720.63;;;14.11;72.04
42859;BME280;28505;56.970;40.998;2023-09-19T07:13:03;100724.88;;;13.84;70.92
42859;BME280;28505;56.970;40.998;2023-09-19T07:18:26;100722.25;;;14.25;70.33
42859;BME280;28505;56.970;40.998;2023-09-19T07:23:49;100714.28;;;14.15;75.87
42859;BME280;28505;56.970;40.998;2023-09-19T07:29:15;100720.84;;;14.28;69.73
42859;BME280;28505;56.970;40.998;2023-09-19T07:34:41;100721.72;;;14.70;70.33
42859;BME280;28505;56.970;40.998;2023-09-19T07:40:05;100713.06;;;14.68;69.27
42859;BME280;28505;56.970;40.998;2023-09-19T07:45:34;100701.53;;;13.50;71.05
42859;BME280;28505;56.970;40.998;2023-09-19T07:51:05;100697.91;;;14.53;65.20
42859;BME280;28505;56.970;40.998;2023-09-19T07:56:34;100696.34;;;14.33;66.43
42859;BME280;28505;56.970;40.998;2023-09-19T08:01:57;100678.91;;;14.53;64.30
42859;BME280;28505;56.970;40.998;2023-09-19T08:07:22;100676.53;;;15.02;66.07
42859;BME280;28505;56.970;40.998;2023-09-19T08:12:46;100668.91;;;14.90;62.66
42859;BME280;28505;56.970;40.998;2023-09-19T08:18:10;100673.53;;;14.48;65.02
42859;BME280;28505;56.970;40.998;2023-09-19T08:23:38;100664.06;;;15.01;65.92
42859;BME280;28505;56.970;40.998;2023-09-19T08:29:02;100665.59;;;15.29;64.83
42859;BME280;28505;56.970;40.998;2023-09-19T08:34:31;100661.34;;;15.01;64.07
42859;BME280;28505;56.970;40.998;2023-09-19T08:39:56;100649.19;;;15.34;65.14
42859;BME280;28505;56.970;40.998;2023-09-19T08:45:24;100645.50;;;14.25;67.64
42859;BME280;28505;56.970;40.998;2023-09-19T08:50:52;100641.56;;;14.86;62.57
42859;BME280;28505;56.970;40.998;2023-09-19T08:56:17;100639.91;;;15.35;62.13
42859;BME280;28505;56.970;40.998;2023-09-19T09:01:40;100622.00;;;14.75;65.55
42859;BME280;28505;56.970;40.998;2023-09-19T09:07:12;100618.91;;;15.05;60.14
42859;BME280;28505;56.970;40.998;2023-09-19T09:12:41;100613.47;;;15.50;59.44
42859;BME280;28505;56.970;40.998;2023-09-19T09:18:05;100613.59;;;14.99;62.28
42859;BME280;28505;56.970;40.998;2023-09-19T09:23:28;100617.00;;;15.05;63.56
42859;BME280;28505;56.970;40.998;2023-09-19T09:29:00;100610.31;;;14.89;62.92
42859;BME280;28505;56.970;40.998;2023-09-19T09:34:32;100602.38;;;15.15;67.10
42859;BME280;28505;56.970;40.998;2023-09-19T09:39:57;100594.94;;;15.52;64.41
42859;BME280;28505;56.970;40.998;2023-09-19T09:45:21;100600.03;;;15.67;63.82
42859;BME280;28505;56.970;40.998;2023-09-19T09:50:56;100589.06;;;14.55;65.36
42859;BME280;28505;56.970;40.998;2023-09-19T09:56:18;100580.38;;;15.03;65.09
42859;BME280;28505;56.970;40.998;2023-09-19T10:01:47;100578.47;;;14.67;64.86
42859;BME280;28505;56.970;40.998;2023-09-19T10:07:33;100575.59;;;14.36;66.23
42859;BME280;28505;56.970;40.998;2023-09-19T10:13:01;100573.00;;;14.31;64.26
42859;BME280;28505;56.970;40.998;2023-09-19T10:18:26;100559.09;;;14.32;65.23
42859;BME280;28505;56.970;40.998;2023-09-19T10:23:51;100553.88;;;14.49;65.86
42859;BME280;28505;56.970;40.998;2023-09-19T10:29:18;100531.19;;;14.45;66.76
42859;BME280;28505;56.970;40.998;2023-09-19T10:34:41;100542.03;;;14.45;63.95
42859;BME280;28505;56.970;40.998;2023-09-19T10:40:06;100529.59;;;14.81;63.28
42859;BME280;28505;56.970;40.998;2023-09-19T10:45:35;100529.91;;;14.79;65.52
42859;BME280;28505;56.970;40.998;2023-09-19T10:51:22;100522.03;;;14.91;64.23
42859;BME280;28505;56.970;40.998;2023-09-19T10:56:50;100521.69;;;15.15;63.00
42859;BME280;28505;56.970;40.998;2023-09-19T11:02:17;100511.63;;;14.71;66.38
42859;BME280;28505;56.970;40.998;2023-09-19T11:07:58;100504.63;;;14.92;63.84
42859;BME280;28505;56.970;40.998;2023-09-19T11:13:30;100505.47;;;15.02;64.24
42859;BME280;28505;56.970;40.998;2023-09-19T11:18:59;100501.66;;;15.03;64.86
42859;BME280;28505;56.970;40.998;2023-09-19T11:24:29;100493.25;;;14.90;65.99
42859;BME280;28505;56.970;40.998;2023-09-19T11:30:27;100485.72;;;15.10;64.13
42859;BME280;28505;56.970;40.998;2023-09-19T11:36:12;100475.94;;;15.31;63.85
42859;BME280;28505;56.970;40.998;2023-09-19T11:41:39;100475.97;;;14.86;65.00
42859;BME280;28505;56.970;40.998;2023-09-19T11:47:01;100465.25;;;15.35;63.56
42859;BME280;28505;56.970;40.998;2023-09-19T11:52:26;100464.09;;;15.27;63.51
42859;BME280;28505;56.970;40.998;2023-09-19T11:57:49;100459.19;;;15.07;63.64
42859;BME280;28505;56.970;40.998;2023-09-19T12:03:13;100452.03;;;15.11;64.54
42859;BME280;28505;56.970;40.998;2023-09-19T12:08:42;100450.59;;;14.91;66.30
42859;BME280;28505;56.970;40.998;2023-09-19T12:14:04;100453.53;;;14.94;64.90
42859;BME280;28505;56.970;40.998;2023-09-19T12:19:26;100440.56;;;15.22;65.13
42859;BME280;28505;56.970;40.998;2023-09-19T12:24:50;100430.38;;;15.28;64.48
42859;BME280;28505;56.970;40.998;2023-09-19T12:30:17;100428.28;;;15.65;64.79
42859;BME280;28505;56.970;40.998;2023-09-19T12:35:49;100414.75;;;15.82;61.92
42859;BME280;28505;56.970;40.998;2023-09-19T12:41:11;100415.22;;;15.76;64.07
42859;BME280;28505;56.970;40.998;2023-09-19T12:46:33;100405.69;;;15.56;62.45
42859;BME280;28505;56.970;40.998;2023-09-19T12:51:56;100397.78;;;15.68;63.86
42859;BME280;28505;56.970;40.998;2023-09-19T12:57:24;100395.88;;;15.77;63.01
42859;BME280;28505;56.970;40.998;2023-09-19T13:03:14;100401.06;;;15.48;64.33
42859;BME280;28505;56.970;40.998;2023-09-19T13:08:39;100397.38;;;15.52;63.81
42859;BME280;28505;56.970;40.998;2023-09-19T13:14:24;100383.97;;;15.56;64.44
42859;BME280;28505;56.970;40.998;2023-09-19T13:19:48;100389.00;;;15.31;66.05
42859;BME280;28505;56.970;40.998;2023-09-19T13:25:20;100383.88;;;15.21;65.65
42859;BME280;28505;56.970;40.998;2023-09-19T13:30:43;100370.19;;;15.43;65.66
42859;BME280;28505;56.970;40.998;2023-09-19T13:36:06;100365.53;;;15.35;66.25
42859;BME280;28505;56.970;40.998;2023-09-19T13:41:28;100354.03;;;15.38;68.00
42859;BME280;28505;56.970;40.998;2023-09-19T13:46:50;100351.34;;;15.47;68.10
42859;BME280;28505;56.970;40.998;2023-09-19T13:52:13;100349.84;;;15.32;66.85
42859;BME280;28505;56.970;40.998;2023-09-19T13:57:37;100356.53;;;15.17;68.91
42859;BME280;28505;56.970;40.998;2023-09-19T14:03:00;100355.38;;;15.10;71.00
42859;BME280;28505;56.970;40.998;2023-09-19T14:08:29;100346.25;;;14.74;71.41
42859;BME280;28505;56.970;40.998;2023-09-19T14:13:53;100341.84;;;15.18;70.49
42859;BME280;28505;56.970;40.998;2023-09-19T14:19:18;100326.66;;;15.17;70.14
42859;BME280;28505;56.970;40.998;2023-09-19T14:24:40;100339.34;;;14.99;71.16
42859;BME280;28505;56.970;40.998;2023-09-19T14:30:03;100345.25;;;14.62;71.63
42859;BME280;28505;56.970;40.998;2023-09-19T14:35:28;100340.06;;;14.29;73.85
42859;BME280;28505;56.970;40.998;2023-09-19T14:41:02;100328.03;;;14.21;74.19
42859;BME280;28505;56.970;40.998;2023-09-19T14:46:24;100333.41;;;14.13;74.83
42859;BME280;28505;56.970;40.998;2023-09-19T14:51:47;100332.78;;;13.93;77.20
42859;BME280;28505;56.970;40.998;2023-09-19T14:57:09;100327.59;;;14.05;77.21
42859;BME280;28505;56.970;40.998;2023-09-19T15:02:31;100324.28;;;14.09;77.70
42859;BME280;28505;56.970;40.998;2023-09-19T15:07:53;100325.03;;;14.00;79.60
42859;BME280;28505;56.970;40.998;2023-09-19T15:13:16;100318.81;;;14.00;79.82
42859;BME280;28505;56.970;40.998;2023-09-19T15:18:44;100323.63;;;13.89;82.11
42859;BME280;28505;56.970;40.998;2023-09-19T15:24:07;100318.09;;;13.94;81.39
42859;BME280;28505;56.970;40.998;2023-09-19T15:29:31;100321.75;;;13.90;82.55
42859;BME280;28505;56.970;40.998;2023-09-19T15:34:53;100313.03;;;13.79;84.28
42859;BME280;28505;56.970;40.998;2023-09-19T15:40:16;100311.16;;;13.66;87.72
42859;BME280;28505;56.970;40.998;2023-09-19T15:45:38;100297.56;;;13.57;90.17
42859;BME280;28505;56.970;40.998;2023-09-19T15:51:04;100310.75;;;13.72;86.41
42859;BME280;28505;56.970;40.998;2023-09-19T15:56:26;100312.28;;;13.65;88.74
42859;BME280;28505;56.970;40.998;2023-09-19T16:01:48;100307.56;;;13.70;85.82
42859;BME280;28505;56.970;40.998;2023-09-19T16:07:12;100316.06;;;13.77;85.87
42859;BME280;28505;56.970;40.998;2023-09-19T16:12:34;100315.69;;;13.70;86.25
42859;BME280;28505;56.970;40.998;2023-09-19T16:17:57;100319.91;;;13.63;89.42
42859;BME280;28505;56.970;40.998;2023-09-19T16:23:22;100309.44;;;13.70;87.79
42859;BME280;28505;56.970;40.998;2023-09-19T16:28:52;100303.97;;;13.61;87.85
42859;BME280;28505;56.970;40.998;2023-09-19T16:34:23;100301.06;;;13.57;88.82
42859;BME280;28505;56.970;40.998;2023-09-19T16:39:49;100296.47;;;13.44;90.23
42859;BME280;28505;56.970;40.998;2023-09-19T16:45:11;100288.84;;;13.19;93.51
42859;BME280;28505;56.970;40.998;2023-09-19T16:50:34;100279.84;;;13.09;91.98
42859;BME280;28505;56.970;40.998;2023-09-19T16:56:11;100284.84;;;12.88;96.85
42859;BME280;28505;56.970;40.998;2023-09-19T17:01:35;100270.50;;;12.88;94.99
42859;BME280;28505;56.970;40.998;2023-09-19T17:06:58;100272.81;;;12.67;99.38
42859;BME280;28505;56.970;40.998;2023-09-19T17:12:20;100265.59;;;12.62;98.96
42859;BME280;28505;56.970;40.998;2023-09-19T17:17:42;100265.00;;;12.65;98.08
42859;BME280;28505;56.970;40.998;2023-09-19T17:23:05;100265.69;;;12.71;96.48
42859;BME280;28505;56.970;40.998;2023-09-19T17:28:28;100267.50;;;12.76;96.26
42859;BME280;28505;56.970;40.998;2023-09-19T17:33:50;100264.47;;;12.50;98.93
42859;BME280;28505;56.970;40.998;2023-09-19T17:39:13;100263.34;;;12.37;100.00
42859;BME280;28505;56.970;40.998;2023-09-19T17:44:37;100273.09;;;12.19;100.00
42859;BME280;28505;56.970;40.998;2023-09-19T17:49:59;100275.53;;;11.88;100.00
42859;BME280;28505;56.970;40.998;2023-09-19T17:55:25;100268.69;;;12.09;100.00
42859;BME280;28505;56.970;40.998;2023-09-19T18:00:47;100264.63;;;12.26;100.00
42859;BME280;28505;56.970;40.998;2023-09-19T18:06:10;100250.50;;;12.29;100.00
42859;BME280;28505;56.970;40.998;2023-09-19T18:11:33;100251.94;;;12.40;100.00
42859;BME280;28505;56.970;40.998;2023-09-19T18:16:55;100256.97;;;12.47;100.00
42859;BME280;28505;56.970;40.998;2023-09-19T18:22:19;100254.94;;;12.52;100.00
42859;BME280;28505;56.970;40.998;2023-09-19T18:27:41;100239.34;;;12.49;100.00
42859;BME280;28505;56.970;40.998;2023-09-19T18:33:03;100241.66;;;12.56;100.00
42859;BME280;28505;56.970;40.998;2023-09-19T18:38:26;100237.13;;;12.51;100.00
42859;BME280;28505;56.970;40.998;2023-09-19T18:43:49;100230.53;;;12.44;100.00
42859;BME280;28505;56.970;40.998;2023-09-19T18:49:11;100228.09;;;12.42;100.00
42859;BME280;28505;56.970;40.998;2023-09-19T18:54:35;100220.19;;;12.32;100.00
42859;BME280;28505;56.970;40.998;2023-09-19T18:59:58;100215.97;;;12.26;100.00
42859;BME280;28505;56.970;40.998;2023-09-19T19:05:21;100223.66;;;12.18;100.00
42859;BME280;28505;56.970;40.998;2023-09-19T19:10:43;100211.44;;;12.07;100.00
42859;BME280;28505;56.970;40.998;2023-09-19T19:16:06;100203.22;;;12.12;100.00
42859;BME280;28505;56.970;40.998;2023-09-19T19:21:32;100206.25;;;12.25;100.00
42859;BME280;28505;56.970;40.998;2023-09-19T19:26:54;100209.97;;;12.29;100.00
42859;BME280;28505;56.970;40.998;2023-09-19T19:32:17;100213.38;;;12.34;100.00
42859;BME280;28505;56.970;40.998;2023-09-19T19:37:43;100215.47;;;12.24;100.00
42859;BME280;28505;56.970;40.998;2023-09-19T19:43:05;100204.13;;;12.08;100.00
42859;BME280;28505;56.970;40.998;2023-09-19T19:48:29;100193.78;;;11.96;100.00
42859;BME280;28505;56.970;40.998;2023-09-19T19:53:52;100198.81;;;12.03;100.00
42859;BME280;28505;56.970;40.998;2023-09-19T19:59:16;100201.50;;;12.03;100.00
42859;BME280;28505;56.970;40.998;2023-09-19T20:04:39;100193.97;;;11.86;100.00
42859;BME280;28505;56.970;40.998;2023-09-19T20:10:01;100195.78;;;11.90;100.00
42859;BME280;28505;56.970;40.998;2023-09-19T20:15:26;100204.50;;;12.01;100.00
42859;BME280;28505;56.970;40.998;2023-09-19T20:20:49;100200.84;;;12.11;100.00
42859;BME280;28505;56.970;40.998;2023-09-19T20:26:14;100191.34;;;12.13;100.00
42859;BME280;28505;56.970;40.998;2023-09-19T20:31:38;100191.22;;;12.18;100.00
42859;BME280;28505;56.970;40.998;2023-09-19T20:37:01;100192.13;;;12.14;100.00
42859;BME280;28505;56.970;40.998;2023-09-19T20:42:23;100196.00;;;11.94;100.00
42859;BME280;28505;56.970;40.998;2023-09-19T20:47:46;100191.97;;;11.91;100.00
42859;BME280;28505;56.970;40.998;2023-09-19T20:53:10;100186.41;;;11.83;100.00
42859;BME280;28505;56.970;40.998;2023-09-19T20:58:37;100185.06;;;11.66;100.00
42859;BME280;28505;56.970;40.998;2023-09-19T21:04:00;100179.41;;;11.49;100.00
42859;BME280;28505;56.970;40.998;2023-09-19T21:09:22;100179.72;;;11.29;100.00
42859;BME280;28505;56.970;40.998;2023-09-19T21:14:45;100179.84;;;11.37;100.00
42859;BME280;28505;56.970;40.998;2023-09-19T21:20:12;100178.09;;;11.28;100.00
42859;BME280;28505;56.970;40.998;2023-09-19T21:25:41;100174.81;;;11.31;100.00
42859;BME280;28505;56.970;40.998;2023-09-19T21:31:04;100168.22;;;11.18;100.00
42859;BME280;28505;56.970;40.998;2023-09-19T21:36:28;100169.66;;;11.15;100.00
42859;BME280;28505;56.970;40.998;2023-09-19T21:41:54;100174.00;;;11.11;100.00
42859;BME280;28505;56.970;40.998;2023-09-19T21:47:16;100167.38;;;11.04;100.00
42859;BME280;28505;56.970;40.998;2023-09-19T21:52:39;100164.88;;;11.07;100.00
42859;BME280;28505;56.970;40.998;2023-09-19T21:58:01;100164.47;;;11.19;100.00
42859;BME280;28505;56.970;40.998;2023-09-19T22:03:23;100164.91;;;11.26;100.00
42859;BME280;28505;56.970;40.998;2023-09-19T22:08:48;100162.72;;;11.28;100.00
42859;BME280;28505;56.970;40.998;2023-09-19T22:14:11;100152.94;;;11.32;100.00
42859;BME280;28505;56.970;40.998;2023-09-19T22:19:33;100145.25;;;11.39;100.00
42859;BME280;28505;56.970;40.998;2023-09-19T22:25:00;100150.34;;;11.41;100.00
42859;BME280;28505;56.970;40.998;2023-09-19T22:30:23;100146.81;;;11.27;100.00
42859;BME280;28505;56.970;40.998;2023-09-19T22:35:47;100141.84;;;11.15;100.00
42859;BME280;28505;56.970;40.998;2023-09-19T22:41:09;100138.38;;;10.95;100.00
42859;BME280;28505;56.970;40.998;2023-09-19T22:46:34;100144.41;;;11.06;100.00
42859;BME280;28505;56.970;40.998;2023-09-19T22:51:57;100143.06;;;10.85;100.00
42859;BME280;28505;56.970;40.998;2023-09-19T22:57:21;100138.13;;;10.73;100.00
42859;BME280;28505;56.970;40.998;2023-09-19T23:02:45;100129.72;;;10.74;100.00
42859;BME280;28505;56.970;40.998;2023-09-19T23:08:11;100137.81;;;10.74;100.00
42859;BME280;28505;56.970;40.998;2023-09-19T23:13:33;100134.81;;;10.57;100.00
42859;BME280;28505;56.970;40.998;2023-09-19T23:19:01;100124.53;;;10.59;100.00
42859;BME280;28505;56.970;40.998;2023-09-19T23:24:31;100131.38;;;10.51;100.00
42859;BME280;28505;56.970;40.998;2023-09-19T23:29:59;100129.47;;;10.52;100.00
42859;BME280;28505;56.970;40.998;2023-09-19T23:35:24;100131.53;;;10.60;100.00
42859;BME280;28505;56.970;40.998;2023-09-19T23:40:49;100137.28;;;10.53;100.00
42859;BME280;28505;56.970;40.998;2023-09-19T23:46:14;100139.22;;;10.48;100.00
42859;BME280;28505;56.970;40.998;2023-09-19T23:51:38;100135.56;;;10.39;100.00
42859;BME280;28505;56.970;40.998;2023-09-19T23:57:00;100138.91;;;10.30;100.00
